• Join FlightAware (Why Join?)
  • Login
  • US Flag 
Gobble Gobble! 
07:23AM EST


 

Airport Tracker/Info


-or-


 

Live Flight TrackerFlight Track Log ✈ SWA311 ✈ 28-Apr-2013 ✈ KPIT - KBWI

Flight Track Log - Related Links

Times and Time Zones

All times are in EDT time to prevent confusion due to time zone crossing. See the SWA311 flight status page for this flight to view local times or setup timezone preferences in your user account.

Time Position Orientation Groundspeed Altitude Reporting Facility
EDT Latitude Longitude Course Direction KTS MPH feet Rate Location/Type
06:17PM 40.3561 -80.1472 211° Southwest 265 305 8,100  Level Cleveland Center
06:18PM 40.2850 -80.1231 165° South 270 311 11,800 2,940 Climbing Cleveland Center
06:19PM 40.2100 -80.0939 163° South 304 350 14,000 1,200 Climbing Cleveland Center
06:20PM 40.1203 -80.0619 165° South 334 384 14,300 1,620 Climbing Cleveland Center
06:21PM 40.2578 -79.5673 163° South  Level Estimated
06:21PM 40.0656 -79.9536 123° Southeast 329 379 17,300  Level Cleveland Center
06:22PM 40.2185 -79.4568 164° South  Level Estimated
06:22PM 40.0250 -79.8186 111° Southeast 353 406 20,300  Level Cleveland Center
06:23PM 40.1387 -79.5196 211° Southwest  Level FlightAware Approximate
06:23PM 39.9844 -79.6861 112° Southeast 372 428 23,000  Level Cleveland Center
06:24PM 39.9417 -79.5542 113° Southeast 388 447 23,000  Level Cleveland Center
06:25PM 39.8964 -79.4142 113° Southeast 406 467 23,000  Level Cleveland Center
06:26PM 39.8439 -79.2425 112° Southeast 415 478 23,000  Level Washington Center
06:27PM 39.7942 -79.0942 114° Southeast 428 493 23,000  Level Washington Center
06:28PM 39.7483 -78.9436 112° Southeast 440 506 23,000  Level Washington Center
06:29PM 39.6983 -78.7900 113° Southeast 452 520 23,000  Level Washington Center
06:30PM 39.6519 -78.6506 113° Southeast 440 506 23,000  Level Washington Center
06:31PM 39.6056 -78.5111 113° Southeast 421 484 23,000 -1,740 Level Washington Center
06:32PM 39.5608 -78.3747 113° Southeast 416 479 19,500 -3,360 Descending Washington Center
06:33PM 39.5178 -78.2414 113° Southeast 416 479 16,400 -2,340 Descending Washington Center
06:34PM 39.4728 -78.1161 115° Southeast 401 461 15,000 -1,200 Descending Washington Center
06:35PM 39.4522 -77.9889 102° East 380 437 14,100 -960 Descending Washington Center
06:36PM 39.4486 -77.8544 92° East 362 417 13,100 -1,020 Descending Washington Center
06:37PM 39.4469 -77.7147 91° East 362 417 12,100 -1,020 Descending Washington Center
06:38PM 39.4472 -77.5856 90° East 357 411 11,100 -540 Descending Washington Center
06:39PM 39.4450 -77.4672 91° East 344 396 11,100  Level Washington Center
06:40PM 39.4444 -77.3544 90° East 327 376 11,100 -60 Level Washington Center
06:41PM 39.4667 -77.2333 77° East 314 361 11,000 -960 Descending Potomac TRACON
06:42PM 39.4833 -77.1333 78° East 323 372 9,200 -1,620 Descending Potomac TRACON
06:43PM 39.4833 -77.0333 90° East 312 359 8,000 -1,200 Descending Potomac TRACON
06:44PM 39.4667 -76.9333 102° East 279 321 7,000 -1,140 Descending Potomac TRACON
06:45PM 39.4333 -76.8667 123° Southeast 260 299 5,900 -1,440 Descending Potomac TRACON
06:46PM 39.3667 -76.9167 210° Southwest 256 295 4,300 -960 Descending Potomac TRACON
06:47PM 39.3167 -76.9833 226° Southwest 236 272 4,000 -240 Descending Potomac TRACON
06:48PM 39.2667 -76.9667 166° South 227 261 3,800 -600 Descending Potomac TRACON
06:49PM 39.2333 -76.9167 131° Southeast 220 253 2,800 -1,200 Descending Potomac TRACON
06:50PM 39.2000 -76.8500 123° Southeast 223 257 1,600 -660 Descending Potomac TRACON
06:51PM 39.1833 -76.7833 108° East 173 199 1,500 -420 Descending Potomac TRACON
06:52PM 39.1833 -76.7333 90° East 132 152 800 -720 Descending Potomac TRACON
06:54PM 39.1667 -76.6667 103° East  Level FlightAware Approximate
07:01PM 39.1754 -76.6683 103° East  Level Estimated
07:02PM 39.1754 -76.6683 103° East  Level Estimated
07:03PM 39.1754 -76.6683 103° East  Level Estimated